Time;durP1;ratioP1;P1;durP2;ratioP2;P2;SDS_P1;SDS_P2;PMS_P1;PMS_P2;Temp;Humidity;BMP_temperature;BMP_pressure;BME280_temperature;BME280_humidity;BME280_pressure;Samples;Min_cycle;Max_cycle;Signal;HPM_P1;HPM_P2
2023/04/28 00:02:00;;;;;;;4.07;2.30;;;17.10;55.50;;;;;;4994953;28;20748;-46
2023/04/28 00:04:31;;;;;;;4.70;2.80;;;17.20;55.60;;;;;;4994611;28;20197;-46
2023/04/28 00:07:02;;;;;;;6.30;2.17;;;17.20;55.70;;;;;;4995423;28;20201;-46
2023/04/28 00:09:32;;;;;;;5.65;2.55;;;17.20;55.70;;;;;;4994954;28;20229;-47
2023/04/28 00:12:05;;;;;;;4.72;2.33;;;17.20;55.70;;;;;;4994771;28;20205;-47
2023/04/28 00:14:36;;;;;;;4.38;2.40;;;17.30;55.80;;;;;;4995050;28;20201;-46
2023/04/28 00:17:08;;;;;;;4.70;2.28;;;17.30;55.80;;;;;;4995280;28;20206;-46
2023/04/28 00:19:38;;;;;;;3.58;2.15;;;17.30;55.80;;;;;;4994973;28;20217;-46
2023/04/28 00:22:09;;;;;;;3.60;2.22;;;17.30;55.70;;;;;;4994743;28;20275;-46
2023/04/28 00:24:40;;;;;;;2.70;2.00;;;17.40;55.70;;;;;;4962982;28;20285;-47
2023/04/28 00:27:13;;;;;;;2.83;1.92;;;17.40;55.60;;;;;;4955773;28;20234;-46
2023/04/28 00:29:43;;;;;;;4.53;2.60;;;17.40;55.70;;;;;;4955213;28;20237;-46
2023/04/28 00:32:14;;;;;;;4.45;2.20;;;17.40;55.70;;;;;;4978940;28;20217;-46
2023/04/28 00:34:45;;;;;;;5.25;2.33;;;17.50;55.80;;;;;;4994387;28;20229;-49
2023/04/28 00:37:15;;;;;;;4.40;2.00;;;17.50;55.80;;;;;;4992612;28;20197;-46
2023/04/28 00:39:46;;;;;;;5.32;2.67;;;17.60;55.80;;;;;;4990663;28;20226;-46
2023/04/28 00:42:19;;;;;;;5.28;2.42;;;17.50;55.70;;;;;;4993363;28;20241;-46
2023/04/28 00:44:49;;;;;;;3.90;2.10;;;17.60;55.80;;;;;;4990967;28;20197;-47
2023/04/28 00:47:21;;;;;;;3.78;1.88;;;17.60;55.70;;;;;;4975029;28;20198;-46
2023/04/28 00:49:51;;;;;;;4.45;2.33;;;17.60;55.80;;;;;;4965854;28;20229;-47
2023/04/28 01:51:58;;;;;;;1.75;1.50;;;18.40;56.20;;;;;;5794058;23;20239;-59
2023/04/28 01:54:29;;;;;;;5.15;2.35;;;18.40;56.20;;;;;;5019930;28;20192;-59
2023/04/28 01:57:01;;;;;;;3.67;1.70;;;18.50;56.20;;;;;;5013313;28;20227;-58
2023/04/28 01:59:31;;;;;;;3.92;1.80;;;18.50;56.10;;;;;;5011427;28;20588;-59
2023/04/28 02:02:02;;;;;;;2.92;1.45;;;18.50;56.10;;;;;;5019016;28;20200;-60
2023/04/28 02:04:33;;;;;;;5.80;2.05;;;18.50;56.10;;;;;;5021616;28;20201;-59
2023/04/28 02:07:05;;;;;;;3.63;2.00;;;18.50;56.10;;;;;;5030042;28;20208;-59
2023/04/28 02:09:36;;;;;;;4.15;1.60;;;18.60;56.10;;;;;;5020381;28;20224;-59
2023/04/28 02:12:07;;;;;;;6.40;2.10;;;18.60;56.10;;;;;;5020977;28;20628;-59
2023/04/28 02:14:37;;;;;;;4.55;1.73;;;18.60;56.10;;;;;;5025469;28;20200;-59
2023/04/28 02:17:08;;;;;;;3.28;1.73;;;18.70;56.10;;;;;;5031492;28;20196;-59
2023/04/28 02:19:39;;;;;;;3.95;1.60;;;18.70;56.10;;;;;;5021081;28;20614;-59
2023/04/28 02:22:11;;;;;;;5.22;1.73;;;18.70;56.10;;;;;;5012195;28;20280;-59
2023/04/28 02:24:42;;;;;;;3.67;2.28;;;18.70;56.10;;;;;;5011922;28;20200;-59
2023/04/28 02:27:14;;;;;;;3.65;1.90;;;18.80;56.10;;;;;;5012489;28;20223;-59
2023/04/28 02:29:45;;;;;;;6.20;1.50;;;18.80;56.10;;;;;;5012181;28;20323;-60
2023/04/28 02:32:15;;;;;;;4.22;1.77;;;18.90;56.10;;;;;;5022280;28;20204;-59
2023/04/28 02:34:46;;;;;;;3.88;2.03;;;18.90;56.10;;;;;;5024795;28;20714;-59
2023/04/28 02:37:18;;;;;;;5.55;2.13;;;18.90;56.10;;;;;;5031678;28;20632;-59
2023/04/28 02:39:49;;;;;;;3.05;1.90;;;18.90;56.20;;;;;;5016579;28;20220;-60
2023/04/28 02:42:19;;;;;;;6.15;1.70;;;18.90;56.20;;;;;;5027183;28;20207;-59
2023/04/28 02:44:50;;;;;;;4.32;1.67;;;19.00;56.20;;;;;;5031927;28;20204;-59
2023/04/28 02:47:21;;;;;;;4.43;1.90;;;19.00;56.20;;;;;;5031493;28;20585;-59
2023/04/28 02:49:51;;;;;;;3.75;1.95;;;19.10;56.20;;;;;;5026827;28;20322;-60
2023/04/28 02:52:24;;;;;;;4.82;2.13;;;19.10;56.20;;;;;;5003281;23;20233;-45
2023/04/28 02:54:56;;;;;;;2.90;1.80;;;19.10;56.20;;;;;;5004076;28;20220;-44
2023/04/28 02:57:27;;;;;;;3.92;1.67;;;19.20;56.20;;;;;;5011943;28;20201;-45
2023/04/28 02:59:57;;;;;;;5.75;1.63;;;19.20;56.30;;;;;;4997223;28;20224;-44
2023/04/28 03:02:28;;;;;;;5.57;1.90;;;19.30;56.30;;;;;;4991184;28;20197;-44
2023/04/28 03:04:59;;;;;;;3.40;1.95;;;19.30;56.30;;;;;;4991114;28;20201;-44
2023/04/28 03:07:31;;;;;;;5.32;1.90;;;19.30;56.30;;;;;;4991902;28;20795;-44
2023/04/28 03:10:02;;;;;;;4.53;2.20;;;19.40;56.30;;;;;;4991638;28;20233;-44
2023/04/28 03:12:33;;;;;;;4.30;1.75;;;19.40;56.30;;;;;;4991399;28;20193;-44
2023/04/28 03:15:03;;;;;;;5.22;1.95;;;19.40;56.30;;;;;;4991380;28;20221;-46
2023/04/28 03:17:35;;;;;;;5.95;1.95;;;19.50;56.30;;;;;;4991684;28;20208;-44
2023/04/28 03:20:06;;;;;;;2.55;1.73;;;19.50;56.30;;;;;;4991449;28;20621;-45
2023/04/28 03:22:38;;;;;;;5.03;1.70;;;19.50;56.30;;;;;;4991745;28;20204;-45
2023/04/28 03:25:09;;;;;;;5.38;1.98;;;19.60;56.30;;;;;;4977758;28;20209;-48
2023/04/28 03:27:40;;;;;;;7.32;2.15;;;19.60;56.20;;;;;;4991361;28;20197;-44
2023/04/28 03:30:11;;;;;;;5.68;2.22;;;19.60;56.20;;;;;;5000596;28;20235;-44
2023/04/28 03:32:42;;;;;;;5.95;2.25;;;19.60;56.20;;;;;;5011370;28;20251;-46
2023/04/28 03:35:12;;;;;;;6.07;2.20;;;19.70;56.10;;;;;;5011486;28;20193;-47
2023/04/28 03:37:45;;;;;;;4.00;1.67;;;19.70;56.10;;;;;;5009286;28;20708;-43
2023/04/28 03:40:16;;;;;;;4.28;1.90;;;19.80;56.10;;;;;;5010663;28;20284;-45
2023/04/28 03:42:47;;;;;;;5.43;2.15;;;19.80;56.60;;;;;;5011464;28;20699;-44
2023/04/28 03:45:18;;;;;;;3.38;1.60;;;19.80;56.00;;;;;;5003358;28;20201;-44
2023/04/28 03:47:48;;;;;;;5.03;2.03;;;19.80;56.00;;;;;;5010808;28;20193;-45
2023/04/28 03:50:19;;;;;;;3.00;1.80;;;19.90;56.00;;;;;;5001568;28;20239;-47
2023/04/28 03:52:52;;;;;;;3.40;1.70;;;19.90;56.00;;;;;;5007738;22;20261;-60
2023/04/28 03:55:22;;;;;;;3.45;1.85;;;19.90;56.00;;;;;;4986380;28;20190;-59
2023/04/28 03:57:53;;;;;;;2.75;1.58;;;20.00;56.00;;;;;;4996780;28;20201;-59
2023/04/28 04:00:24;;;;;;;5.10;1.98;;;20.00;55.90;;;;;;4984675;28;20234;-60
2023/04/28 04:02:54;;;;;;;3.72;1.60;;;20.00;55.90;;;;;;4988028;28;20197;-59
2023/04/28 04:05:25;;;;;;;4.75;1.73;;;20.10;55.90;;;;;;4974695;28;20197;-59
2023/04/28 04:07:57;;;;;;;3.13;1.65;;;20.10;55.80;;;;;;4988543;28;20796;-60
2023/04/28 04:10:28;;;;;;;3.72;1.80;;;20.10;55.80;;;;;;4981206;28;20292;-59
2023/04/28 04:12:59;;;;;;;5.63;2.17;;;20.20;55.80;;;;;;4975240;28;20205;-59
2023/04/28 04:15:29;;;;;;;4.47;1.60;;;20.20;55.70;;;;;;4972601;28;20207;-60
2023/04/28 04:18:00;;;;;;;4.40;1.83;;;20.20;55.60;;;;;;4976871;28;20208;-59
2023/04/28 04:20:31;;;;;;;5.00;1.98;;;20.30;55.60;;;;;;4973739;28;20199;-59
2023/04/28 04:23:03;;;;;;;2.55;1.50;;;20.30;55.70;;;;;;4987108;28;20649;-59
2023/04/28 04:25:34;;;;;;;3.97;1.80;;;20.30;55.50;;;;;;4979333;28;20212;-59
2023/04/28 04:28:05;;;;;;;4.45;1.88;;;20.30;55.50;;;;;;4992207;28;20316;-59
2023/04/28 04:30:35;;;;;;;4.15;1.60;;;20.30;55.50;;;;;;4986689;28;20233;-61
2023/04/28 04:33:06;;;;;;;4.13;1.67;;;20.30;55.50;;;;;;4989798;28;20201;-60
2023/04/28 04:35:37;;;;;;;3.97;2.00;;;20.40;55.50;;;;;;4974611;28;20286;-60
2023/04/28 04:38:09;;;;;;;4.88;2.17;;;20.40;55.50;;;;;;4974016;28;20226;-60
2023/04/28 04:40:40;;;;;;;4.78;1.98;;;20.40;55.50;;;;;;4973973;28;20249;-60
2023/04/28 04:43:10;;;;;;;3.65;1.77;;;20.40;55.40;;;;;;4974163;28;20194;-60
2023/04/28 04:45:41;;;;;;;4.93;1.80;;;20.40;55.30;;;;;;4974494;28;20198;-60
2023/04/28 04:48:12;;;;;;;3.65;1.77;;;20.40;55.30;;;;;;4973932;28;20685;-60
2023/04/28 04:50:43;;;;;;;2.97;1.52;;;20.50;55.30;;;;;;4985571;28;20221;-60
2023/04/28 04:53:15;;;;;;;4.35;1.73;;;20.50;55.30;;;;;;4980789;28;20260;-60
2023/04/28 04:55:46;;;;;;;4.25;1.60;;;20.50;55.20;;;;;;4972187;28;20206;-60
2023/04/28 04:58:17;;;;;;;5.32;1.80;;;20.50;55.20;;;;;;4972496;28;20218;-60
2023/04/28 05:00:48;;;;;;;4.18;1.77;;;20.50;55.20;;;;;;4973257;28;20202;-59
2023/04/28 05:03:18;;;;;;;4.75;1.83;;;20.50;55.20;;;;;;4972972;28;20600;-60
2023/04/28 05:05:49;;;;;;;2.75;1.50;;;20.50;55.10;;;;;;4975680;28;20205;-60
2023/04/28 05:08:22;;;;;;;4.45;1.88;;;20.50;55.10;;;;;;4991387;28;20228;-60
2023/04/28 05:10:53;;;;;;;4.18;1.73;;;20.50;55.10;;;;;;4987289;28;20237;-60
2023/04/28 05:13:23;;;;;;;5.63;2.30;;;20.50;55.10;;;;;;4991346;28;20657;-59
2023/04/28 05:15:54;;;;;;;4.90;1.80;;;20.50;55.10;;;;;;4973341;28;20209;-60
2023/04/28 05:18:25;;;;;;;5.63;1.80;;;20.50;55.10;;;;;;4966566;28;20230;-59
2023/04/28 05:20:55;;;;;;;7.50;2.25;;;20.50;55.10;;;;;;4993080;28;20657;-60
2023/04/28 05:23:28;;;;;;;3.15;1.70;;;20.50;55.10;;;;;;4985625;28;20206;-60
2023/04/28 05:25:59;;;;;;;4.03;1.50;;;20.60;55.10;;;;;;4988698;28;20212;-60
2023/04/28 05:28:29;;;;;;;4.03;2.00;;;20.60;55.10;;;;;;4988503;28;20214;-59
2023/04/28 05:31:00;;;;;;;4.03;1.90;;;20.50;54.90;;;;;;4993223;28;20236;-60
2023/04/28 05:33:30;;;;;;;4.30;1.60;;;20.60;54.90;;;;;;4992842;28;20201;-60
2023/04/28 05:36:01;;;;;;;3.13;1.92;;;20.50;54.80;;;;;;4993522;28;20209;-60
2023/04/28 05:38:34;;;;;;;4.28;1.95;;;20.60;54.80;;;;;;4989816;28;20689;-61
2023/04/28 05:41:05;;;;;;;4.55;1.88;;;20.50;54.70;;;;;;4954447;28;20203;-60
2023/04/28 05:43:38;;;;;;;4.35;1.77;;;20.50;54.60;;;;;;4955059;28;20195;-60
2023/04/28 05:46:09;;;;;;;3.40;1.80;;;20.50;54.60;;;;;;4972922;28;20209;-60
2023/04/28 05:48:39;;;;;;;2.75;1.58;;;20.50;54.50;;;;;;4973035;28;20214;-60
2023/04/28 05:51:10;;;;;;;3.75;1.85;;;20.50;54.50;;;;;;4972889;28;20292;-60
2023/04/28 05:53:42;;;;;;;3.80;1.58;;;20.50;54.50;;;;;;5017079;23;20946;-45
2023/04/28 05:56:13;;;;;;;4.40;1.95;;;20.50;54.60;;;;;;5012254;28;20671;-47
2023/04/28 05:58:44;;;;;;;3.65;1.73;;;20.50;54.60;;;;;;5010606;28;20217;-46
2023/04/28 06:01:15;;;;;;;4.32;2.00;;;20.50;54.60;;;;;;5011521;28;20228;-47
2023/04/28 06:03:46;;;;;;;3.05;2.03;;;20.40;54.50;;;;;;5011654;28;20201;-48
2023/04/28 06:06:17;;;;;;;4.50;2.10;;;20.50;54.50;;;;;;5011710;28;20193;-51
2023/04/28 06:08:49;;;;;;;3.30;1.90;;;20.40;54.40;;;;;;5012101;28;20216;-50
2023/04/28 06:11:21;;;;;;;3.42;1.70;;;20.40;54.30;;;;;;5011082;28;20228;-50
2023/04/28 06:13:52;;;;;;;3.10;1.65;;;20.40;54.30;;;;;;5010142;28;20282;-48
2023/04/28 06:16:22;;;;;;;3.13;1.65;;;20.40;54.20;;;;;;5011187;28;20208;-51
2023/04/28 06:18:53;;;;;;;3.60;1.92;;;20.40;54.20;;;;;;5011532;28;20224;-50
2023/04/28 06:21:24;;;;;;;3.65;1.75;;;20.40;54.20;;;;;;5011791;28;20227;-51
2023/04/28 06:23:56;;;;;;;2.85;2.03;;;20.40;54.30;;;;;;5019082;28;20204;-50
2023/04/28 06:26:27;;;;;;;3.13;1.90;;;20.40;54.30;;;;;;5011718;28;20208;-50
2023/04/28 06:28:57;;;;;;;4.63;1.90;;;20.30;54.20;;;;;;5010344;28;20216;-51
2023/04/28 06:31:28;;;;;;;4.00;1.98;;;20.30;54.20;;;;;;5011555;28;20286;-49
2023/04/28 06:33:59;;;;;;;6.47;2.30;;;20.30;54.20;;;;;;5010987;28;20212;-48
2023/04/28 06:36:29;;;;;;;2.90;1.70;;;20.30;54.20;;;;;;5010978;28;20544;-50
2023/04/28 06:39:02;;;;;;;3.60;2.05;;;20.30;54.20;;;;;;5010879;28;20223;-50
2023/04/28 06:41:33;;;;;;;4.03;2.03;;;20.30;54.20;;;;;;5010377;28;20284;-51
2023/04/28 06:44:04;;;;;;;3.53;1.80;;;20.30;54.20;;;;;;5011124;28;20197;-47
2023/04/28 06:46:34;;;;;;;3.80;1.70;;;20.20;54.20;;;;;;5011841;28;20197;-50
2023/04/28 06:49:05;;;;;;;4.57;1.95;;;20.20;54.10;;;;;;5014132;28;20216;-50
2023/04/28 06:59:39;;;;;;;3.25;1.67;;;20.20;54.00;;;;;;5714411;22;20279;-60
2023/04/28 07:02:11;;;;;;;4.47;2.13;;;20.10;54.00;;;;;;5002607;28;20563;-60
2023/04/28 07:04:41;;;;;;;3.33;1.80;;;20.10;54.00;;;;;;4990823;28;20701;-61
2023/04/28 07:07:12;;;;;;;4.75;2.10;;;20.10;54.00;;;;;;4991643;28;20197;-61
2023/04/28 07:09:43;;;;;;;4.07;2.03;;;20.10;54.00;;;;;;4991302;28;20216;-61
2023/04/28 07:12:13;;;;;;;3.28;2.00;;;20.00;54.00;;;;;;4991150;28;20236;-61
2023/04/28 07:14:46;;;;;;;3.63;2.00;;;20.00;54.00;;;;;;4991398;28;20189;-61
2023/04/28 07:17:17;;;;;;;3.42;2.00;;;20.00;54.10;;;;;;4983606;28;20202;-61
2023/04/28 07:19:48;;;;;;;2.60;1.70;;;20.00;54.00;;;;;;4953067;28;20219;-61
2023/04/28 07:22:19;;;;;;;4.63;2.03;;;20.00;54.10;;;;;;4965490;28;20248;-61
2023/04/28 07:24:50;;;;;;;2.95;2.20;;;19.90;54.00;;;;;;4972929;28;20269;-61
2023/04/28 07:27:22;;;;;;;4.50;2.25;;;20.00;54.00;;;;;;4990912;28;20194;-61
2023/04/28 07:29:54;;;;;;;3.92;2.00;;;19.90;54.00;;;;;;4991673;28;20228;-61
2023/04/28 07:32:25;;;;;;;3.63;2.10;;;19.90;54.00;;;;;;4991339;28;20305;-61
2023/04/28 07:34:56;;;;;;;3.92;2.10;;;19.90;54.00;;;;;;4991626;28;20210;-61
2023/04/28 07:37:26;;;;;;;3.70;2.10;;;19.90;54.00;;;;;;4991677;28;20205;-62
2023/04/28 07:39:58;;;;;;;4.65;2.30;;;19.80;53.90;;;;;;4991666;28;20224;-61
2023/04/28 07:42:28;;;;;;;2.63;2.10;;;19.80;54.00;;;;;;4991135;28;20193;-61
2023/04/28 07:45:01;;;;;;;2.50;1.73;;;19.80;54.00;;;;;;4991466;28;20205;-61
2023/04/28 07:47:32;;;;;;;3.67;2.10;;;19.80;54.00;;;;;;4991165;28;20685;-61
2023/04/28 07:50:05;;;;;;;3.72;2.00;;;19.80;54.00;;;;;;4991639;28;20261;-61
2023/04/28 07:52:36;;;;;;;2.88;2.13;;;19.80;54.00;;;;;;5011432;23;20283;-57
2023/04/28 07:55:07;;;;;;;4.13;2.40;;;19.70;54.00;;;;;;5014722;28;20240;-55
2023/04/28 07:57:38;;;;;;;4.20;1.98;;;19.70;54.00;;;;;;5014561;28;20200;-54
2023/04/28 08:00:11;;;;;;;3.35;2.15;;;19.70;54.00;;;;;;5034465;28;20227;-55
2023/04/28 08:02:42;;;;;;;4.22;2.42;;;19.70;54.00;;;;;;5034292;28;20200;-56
2023/04/28 08:05:13;;;;;;;4.10;1.90;;;19.70;54.00;;;;;;5034156;28;20648;-56
2023/04/28 08:07:43;;;;;;;6.30;2.33;;;19.70;54.00;;;;;;5034427;28;20660;-56
2023/04/28 08:10:14;;;;;;;2.47;1.70;;;19.60;53.90;;;;;;5034296;28;20196;-57
2023/04/28 08:12:46;;;;;;;4.05;2.28;;;19.60;53.90;;;;;;5034074;28;20235;-58
2023/04/28 08:15:18;;;;;;;4.57;2.17;;;19.60;53.90;;;;;;5034241;28;20242;-57
2023/04/28 08:17:49;;;;;;;3.95;1.95;;;19.60;53.90;;;;;;5034195;28;20298;-55
2023/04/28 08:20:20;;;;;;;2.55;1.75;;;19.50;53.90;;;;;;5034270;28;20200;-54
2023/04/28 08:22:51;;;;;;;3.58;1.95;;;19.50;53.90;;;;;;5034212;28;20247;-55
2023/04/28 08:25:21;;;;;;;2.67;1.58;;;19.50;53.90;;;;;;5034398;28;20196;-55
2023/04/28 08:27:52;;;;;;;3.03;1.95;;;19.50;53.90;;;;;;5033740;28;20200;-56
2023/04/28 08:30:24;;;;;;;3.05;1.55;;;19.50;53.90;;;;;;5029137;28;20229;-56
2023/04/28 08:32:55;;;;;;;4.22;2.25;;;19.40;53.90;;;;;;5012831;28;20294;-57
2023/04/28 08:35:26;;;;;;;3.35;2.47;;;19.40;53.80;;;;;;5014336;28;20197;-55
2023/04/28 08:37:56;;;;;;;3.90;2.20;;;19.40;53.90;;;;;;5013852;28;20197;-57
2023/04/28 08:40:28;;;;;;;3.15;1.90;;;19.40;53.90;;;;;;5013523;28;20196;-58
2023/04/28 08:43:01;;;;;;;3.25;2.05;;;19.40;53.80;;;;;;5012695;28;20185;-56
2023/04/28 08:45:44;;;;;;;3.70;2.30;;;19.30;53.80;;;;;;4994882;28;20201;-57
2023/04/28 08:48:21;;;;;;;3.15;1.90;;;19.40;53.80;;;;;;4995014;28;20228;-56
2023/04/28 08:50:53;;;;;;;3.00;1.90;;;19.30;53.80;;;;;;4995197;28;20695;-57
2023/04/28 09:42:42;;;;;;;3.38;1.92;;;18.90;53.80;;;;;;5931261;23;20236;-61
2023/04/28 09:45:15;;;;;;;2.72;1.75;;;18.90;53.90;;;;;;4991240;28;20572;-60
2023/04/28 09:47:47;;;;;;;3.88;2.22;;;18.90;53.90;;;;;;4992741;28;20607;-61
2023/04/28 09:50:18;;;;;;;3.35;1.83;;;18.90;53.90;;;;;;4973080;28;20682;-61
2023/04/28 09:52:58;;;;;;;2.85;1.98;;;18.80;53.90;;;;;;4973565;28;20226;-60
2023/04/28 09:55:29;;;;;;;2.63;1.88;;;18.80;53.90;;;;;;4972470;28;20198;-60
2023/04/28 09:58:07;;;;;;;3.10;1.55;;;18.80;53.90;;;;;;4972706;28;20225;-60
2023/04/28 10:00:40;;;;;;;4.10;1.73;;;18.80;53.90;;;;;;4973363;28;20730;-61
2023/04/28 10:03:13;;;;;;;3.15;1.98;;;18.80;53.90;;;;;;4973348;28;20326;-61
2023/04/28 10:05:44;;;;;;;1.70;1.60;;;18.80;53.80;;;;;;4970920;28;20194;-61
2023/04/28 10:08:15;;;;;;;3.08;1.88;;;18.80;53.90;;;;;;4973072;28;20569;-61
2023/04/28 10:10:47;;;;;;;3.42;1.90;;;18.80;53.90;;;;;;4972440;28;20194;-61
2023/04/28 10:13:21;;;;;;;2.92;1.60;;;18.70;53.80;;;;;;4972989;28;20308;-61
2023/04/28 10:15:54;;;;;;;3.08;1.80;;;18.70;53.80;;;;;;4972369;28;20684;-61
2023/04/28 10:18:25;;;;;;;2.70;1.90;;;18.70;53.90;;;;;;4972298;28;20225;-61
2023/04/28 10:20:59;;;;;;;2.30;1.95;;;18.70;53.80;;;;;;4975667;28;20202;-61
2023/04/28 10:24:09;;;;;;;1.77;1.50;;;18.60;53.80;;;;;;4972464;28;20595;-61
2023/04/28 10:27:14;;;;;;;2.25;1.70;;;18.60;53.90;;;;;;4972855;28;20205;-61
2023/04/28 10:29:47;;;;;;;2.33;1.55;;;18.60;53.80;;;;;;4972582;28;20225;-59
2023/04/28 10:32:25;;;;;;;3.08;1.75;;;18.60;53.80;;;;;;4985384;28;20238;-59
2023/04/28 10:35:15;;;;;;;2.38;1.40;;;18.60;53.80;;;;;;4991008;28;20197;-61
2023/04/28 10:38:07;;;;;;;2.10;1.40;;;18.50;53.80;;;;;;4952965;28;20195;-61
2023/04/28 10:40:38;;;;;;;2.53;1.55;;;18.50;53.80;;;;;;4963101;28;20591;-61
2023/04/28 10:43:09;;;;;;;2.67;1.73;;;18.50;53.80;;;;;;4972560;28;20210;-61
2023/04/28 10:46:07;;;;;;;2.95;1.52;;;18.50;53.90;;;;;;4972123;28;20277;-61
2023/04/28 10:48:57;;;;;;;2.83;1.92;;;18.50;53.90;;;;;;4973031;28;20218;-61
2023/04/28 10:51:31;;;;;;;2.15;1.55;;;18.50;53.90;;;;;;4972363;28;20681;-61
2023/04/28 10:54:27;;;;;;;2.38;1.73;;;18.40;53.80;;;;;;4973089;28;20202;-61
2023/04/28 10:57:21;;;;;;;2.58;1.67;;;18.40;53.90;;;;;;4963004;28;20225;-61
2023/04/28 10:59:53;;;;;;;2.08;1.50;;;18.40;53.90;;;;;;4959191;28;20320;-60
2023/04/28 11:02:45;;;;;;;2.05;1.50;;;18.40;53.90;;;;;;4972130;28;20194;-60
2023/04/28 11:05:20;;;;;;;3.15;1.80;;;18.30;53.90;;;;;;4972406;28;20242;-60
2023/04/28 11:08:34;;;;;;;1.83;1.40;;;18.30;53.80;;;;;;4974275;28;20197;-59
2023/04/28 11:11:25;;;;;;;2.83;1.88;;;18.30;53.90;;;;;;4971287;28;20205;-59
2023/04/28 11:13:57;;;;;;;2.90;1.67;;;18.30;53.90;;;;;;4982333;28;20198;-60
2023/04/28 11:16:28;;;;;;;3.22;1.80;;;18.30;54.00;;;;;;4982795;28;20717;-60
2023/04/28 11:19:05;;;;;;;1.83;1.30;;;18.30;53.90;;;;;;4971589;28;20245;-59
2023/04/28 11:21:36;;;;;;;2.80;1.58;;;18.20;53.90;;;;;;4971936;28;20638;-60
2023/04/28 11:24:12;;;;;;;4.35;1.85;;;18.30;54.00;;;;;;4971798;28;20205;-60
2023/04/28 11:26:43;;;;;;;2.28;1.40;;;18.20;53.90;;;;;;4975496;28;20851;-60
2023/04/28 11:29:14;;;;;;;3.05;1.58;;;18.20;53.90;;;;;;4992731;28;20774;-60
2023/04/28 11:31:52;;;;;;;2.22;1.40;;;18.20;54.00;;;;;;4985095;28;20614;-60
2023/04/28 11:34:26;;;;;;;2.90;1.50;;;18.20;54.00;;;;;;4983335;28;20240;-61
2023/04/28 11:36:57;;;;;;;1.83;1.60;;;18.20;54.00;;;;;;4983346;28;20198;-61
2023/04/28 11:39:34;;;;;;;2.90;1.55;;;18.20;54.00;;;;;;4975689;28;20647;-60
2023/04/28 11:42:11;;;;;;;1.98;1.60;;;18.10;53.90;;;;;;4975169;28;20200;-60
2023/04/28 11:44:42;;;;;;;2.20;1.30;;;18.10;53.90;;;;;;4975981;28;20205;-60
2023/04/28 11:47:12;;;;;;;2.10;1.33;;;18.10;54.00;;;;;;4975633;28;20202;-60
2023/04/28 11:49:48;;;;;;;2.33;1.63;;;18.10;53.90;;;;;;4975886;28;20226;-60
2023/04/28 11:52:19;;;;;;;2.70;1.50;;;18.10;54.00;;;;;;4975539;28;20228;-60
2023/04/28 11:54:56;;;;;;;1.80;1.40;;;18.10;54.00;;;;;;4975531;28;20569;-60
2023/04/28 11:57:27;;;;;;;2.50;1.80;;;18.10;54.00;;;;;;4974854;28;20229;-60
2023/04/28 12:00:18;;;;;;;1.92;1.30;;;18.10;54.00;;;;;;4975310;28;20226;-60
2023/04/28 12:02:48;;;;;;;2.00;1.38;;;18.00;54.00;;;;;;4975360;28;20191;-60
2023/04/28 12:05:21;;;;;;;2.10;1.50;;;18.10;54.00;;;;;;4975820;28;20204;-60
2023/04/28 12:07:52;;;;;;;3.75;1.30;;;18.10;54.00;;;;;;4975551;28;20285;-60
2023/04/28 12:10:22;;;;;;;1.67;1.40;;;18.00;54.00;;;;;;4974599;28;20198;-60
2023/04/28 12:12:53;;;;;;;1.73;1.40;;;18.00;54.00;;;;;;4974914;28;20226;-60
2023/04/28 12:15:24;;;;;;;2.13;1.50;;;18.00;53.90;;;;;;4974620;28;20214;-60
2023/04/28 12:17:55;;;;;;;1.73;1.33;;;18.00;54.00;;;;;;4975543;28;20194;-60
2023/04/28 12:20:40;;;;;;;3.28;1.50;;;18.00;54.00;;;;;;4981991;28;20610;-60
2023/04/28 12:23:11;;;;;;;1.60;1.27;;;18.00;54.00;;;;;;4975555;28;20666;-61
2023/04/28 12:25:47;;;;;;;2.92;1.48;;;17.90;53.90;;;;;;4975395;28;20599;-60
2023/04/28 12:28:18;;;;;;;1.88;1.50;;;17.90;53.90;;;;;;4955120;28;20646;-60
2023/04/28 12:30:48;;;;;;;2.58;1.38;;;17.90;53.90;;;;;;4955351;28;20680;-60
2023/04/28 12:33:26;;;;;;;2.08;1.50;;;17.90;54.00;;;;;;4978767;28;20229;-61
2023/04/28 12:35:59;;;;;;;1.65;1.27;;;17.90;54.00;;;;;;4992274;28;20208;-61
2023/04/28 12:38:29;;;;;;;1.90;1.38;;;17.90;54.00;;;;;;4973087;28;20537;-61
2023/04/28 12:41:00;;;;;;;2.92;1.42;;;17.90;54.00;;;;;;4974580;28;20326;-61
2023/04/28 12:43:31;;;;;;;2.05;1.38;;;17.80;53.90;;;;;;4976733;28;20616;-60
2023/04/28 12:46:02;;;;;;;2.00;1.23;;;17.80;54.00;;;;;;4974628;28;20202;-61
2023/04/28 12:48:34;;;;;;;1.63;1.20;;;17.80;54.00;;;;;;4973854;28;20316;-60
2023/04/28 12:51:07;;;;;;;2.30;1.52;;;17.80;54.00;;;;;;4974258;28;20248;-60
2023/04/28 12:53:37;;;;;;;2.20;1.40;;;17.80;54.00;;;;;;4974802;28;20265;-61
2023/04/28 12:56:09;;;;;;;1.40;1.30;;;17.80;54.00;;;;;;4974444;28;20257;-60
2023/04/28 12:58:39;;;;;;;1.90;1.30;;;17.80;54.00;;;;;;4973466;28;20243;-59
2023/04/28 13:01:10;;;;;;;1.42;1.10;;;17.80;54.00;;;;;;4973931;28;20656;-59
2023/04/28 13:03:42;;;;;;;1.30;1.02;;;17.70;54.00;;;;;;4974539;28;20654;-60
2023/04/28 13:06:15;;;;;;;3.58;1.25;;;17.70;54.00;;;;;;4973790;28;20285;-60
2023/04/28 13:08:46;;;;;;;2.70;1.42;;;17.70;53.90;;;;;;4974620;28;20218;-60
2023/04/28 13:11:17;;;;;;;2.55;1.33;;;17.70;54.00;;;;;;4974027;28;20245;-61
2023/04/28 13:13:47;;;;;;;2.08;1.40;;;17.70;53.90;;;;;;4976857;28;20280;-61
2023/04/28 13:16:18;;;;;;;1.90;1.30;;;17.70;53.90;;;;;;4974950;28;20548;-62
2023/04/28 13:18:49;;;;;;;1.70;1.30;;;17.70;54.00;;;;;;4974777;28;20632;-61
2023/04/28 13:21:21;;;;;;;3.08;1.23;;;17.60;53.90;;;;;;4977529;28;20191;-62
2023/04/28 13:23:52;;;;;;;2.20;1.25;;;17.70;54.00;;;;;;4984419;28;20250;-62
2023/04/28 13:26:23;;;;;;;1.40;1.15;;;17.70;54.00;;;;;;4991369;28;20250;-61
2023/04/28 13:28:53;;;;;;;1.60;1.10;;;17.70;54.00;;;;;;4990354;28;20308;-61
2023/04/28 13:31:24;;;;;;;1.17;1.08;;;17.60;54.00;;;;;;4993789;28;20194;-62
2023/04/28 13:33:55;;;;;;;2.78;1.20;;;17.60;54.00;;;;;;4975570;28;20308;-61
2023/04/28 13:36:28;;;;;;;1.90;1.15;;;17.60;53.90;;;;;;4973118;28;20202;-61
2023/04/28 13:38:59;;;;;;;2.13;1.30;;;17.60;54.00;;;;;;4970658;28;20214;-61
2023/04/28 13:41:29;;;;;;;2.05;1.48;;;17.60;54.00;;;;;;4972935;28;20237;-62
2023/04/28 13:44:00;;;;;;;2.85;1.30;;;17.60;54.00;;;;;;4970363;28;20657;-60
2023/04/28 13:46:31;;;;;;;2.50;1.23;;;17.50;53.90;;;;;;4972648;28;20610;-60
2023/04/28 13:49:01;;;;;;;1.27;0.98;;;17.60;54.60;;;;;;4970094;28;20226;-61
2023/04/28 13:51:34;;;;;;;1.27;1.00;;;17.50;53.90;;;;;;4973020;28;20536;-61
2023/04/28 13:54:07;;;;;;;1.98;1.40;;;17.50;53.90;;;;;;4968939;28;20222;-60
2023/04/28 13:56:38;;;;;;;2.47;1.15;;;17.50;53.90;;;;;;4969735;28;20202;-61
2023/04/28 13:59:09;;;;;;;1.40;1.23;;;17.50;54.00;;;;;;4972624;28;20210;-61
2023/04/28 14:01:39;;;;;;;1.58;1.17;;;17.50;54.00;;;;;;4967593;28;20273;-61
2023/04/28 14:04:10;;;;;;;1.52;1.20;;;17.50;54.00;;;;;;4973051;28;20198;-61
2023/04/28 14:06:45;;;;;;;1.77;1.10;;;17.50;54.00;;;;;;4973573;28;20194;-61
2023/04/28 14:09:16;;;;;;;1.48;1.10;;;17.50;54.00;;;;;;4973502;28;20756;-61
2023/04/28 14:11:46;;;;;;;1.38;1.17;;;17.50;54.10;;;;;;4972617;28;20204;-60
2023/04/28 14:14:17;;;;;;;2.13;1.38;;;17.50;54.10;;;;;;4971548;28;20634;-60
2023/04/28 14:16:48;;;;;;;1.98;1.25;;;17.50;54.10;;;;;;4973170;28;20646;-61
2023/04/28 14:19:19;;;;;;;0.98;0.88;;;17.50;54.10;;;;;;4973436;28;20222;-61
2023/04/28 14:21:52;;;;;;;2.17;1.20;;;17.40;54.00;;;;;;4973600;28;20202;-60
2023/04/28 14:24:22;;;;;;;1.98;1.23;;;17.40;54.10;;;;;;4973353;28;20202;-61
2023/04/28 14:26:53;;;;;;;1.55;1.13;;;17.50;54.10;;;;;;4990125;28;20236;-60
2023/04/28 14:29:24;;;;;;;1.83;1.10;;;17.40;54.10;;;;;;4992614;28;20213;-60
2023/04/28 14:31:54;;;;;;;2.30;1.08;;;17.40;54.10;;;;;;4992715;28;20601;-61
2023/04/28 14:34:25;;;;;;;1.27;1.10;;;17.40;54.10;;;;;;4992747;28;20275;-61
2023/04/28 14:36:57;;;;;;;2.20;1.35;;;17.40;54.10;;;;;;4993053;28;20219;-62
2023/04/28 14:39:28;;;;;;;1.00;0.90;;;17.40;54.10;;;;;;4992004;28;20225;-61
2023/04/28 14:41:58;;;;;;;1.60;1.20;;;17.40;54.10;;;;;;4992033;28;20608;-60
2023/04/28 14:44:29;;;;;;;1.48;0.98;;;17.40;54.20;;;;;;4990636;28;20662;-61
2023/04/28 14:47:00;;;;;;;1.70;1.00;;;17.40;54.20;;;;;;4989135;28;20193;-60
2023/04/28 14:49:34;;;;;;;1.52;1.10;;;17.40;54.20;;;;;;4992429;28;20217;-61
2023/04/28 14:52:07;;;;;;;1.52;1.23;;;17.40;54.10;;;;;;4992986;28;20206;-61
2023/04/28 14:54:38;;;;;;;1.25;0.98;;;17.40;54.10;;;;;;4976980;28;20240;-62
2023/04/28 14:57:08;;;;;;;1.60;1.10;;;17.30;54.10;;;;;;4972748;28;20226;-62
2023/04/28 14:59:39;;;;;;;1.38;0.90;;;17.30;54.10;;;;;;4972078;28;20226;-62
2023/04/28 15:02:10;;;;;;;1.30;1.00;;;17.30;54.10;;;;;;4972975;28;20265;-61
2023/04/28 15:04:41;;;;;;;1.77;1.02;;;17.30;54.10;;;;;;4975163;28;20198;-61
2023/04/28 15:07:14;;;;;;;1.20;1.00;;;17.30;54.10;;;;;;4972667;28;20555;-62
2023/04/28 15:09:44;;;;;;;1.67;1.10;;;17.30;54.10;;;;;;4972709;28;20218;-61
2023/04/28 15:12:15;;;;;;;1.67;1.00;;;17.30;54.10;;;;;;4972065;28;20610;-62